Time;durP1;ratioP1;P1;durP2;ratioP2;P2;SDS_P1;SDS_P2;PMS_P1;PMS_P2;Temp;Humidity;BMP_temperature;BMP_pressure;BME280_temperature;BME280_humidity;BME280_pressure;Samples;Min_cycle;Max_cycle;Signal;HPM_P1;HPM_P2
2023/10/25 00:01:21;;;;;;;;;;;;;;;20.80;54.34;96326.61;599276;234;68390;-66
2023/10/25 00:03:48;;;;;;;;;;;;;;;20.81;53.60;96322.84;604816;234;62424;-66
2023/10/25 00:06:16;;;;;;;;;;;;;;;20.81;52.96;96334.31;604779;234;66118;-66
2023/10/25 00:08:43;;;;;;;;;;;;;;;20.81;55.12;96346.88;604820;234;65771;-68
2023/10/25 00:11:11;;;;;;;;;;;;;;;20.80;55.83;96323.94;604861;234;64924;-68
2023/10/25 00:13:38;;;;;;;;;;;;;;;20.79;54.36;96320.48;604812;234;68555;-68
2023/10/25 00:16:06;;;;;;;;;;;;;;;20.80;54.79;96329.28;604798;234;65978;-68
2023/10/25 00:18:34;;;;;;;;;;;;;;;20.79;53.42;96328.48;604805;234;64720;-68
2023/10/25 00:21:01;;;;;;;;;;;;;;;20.79;54.08;96325.81;604750;234;66319;-70
2023/10/25 00:23:29;;;;;;;;;;;;;;;20.79;55.59;96331.16;604874;234;66347;-70
2023/10/25 00:25:56;;;;;;;;;;;;;;;20.79;55.49;96323.15;604777;234;62468;-70
2023/10/25 00:28:24;;;;;;;;;;;;;;;20.78;55.75;96324.21;604684;234;66426;-71
2023/10/25 00:30:51;;;;;;;;;;;;;;;20.78;56.43;96307.40;604755;234;65786;-70
2023/10/25 00:33:19;;;;;;;;;;;;;;;20.77;56.85;96301.27;604807;234;64751;-71
2023/10/25 00:35:46;;;;;;;;;;;;;;;20.77;53.60;96295.14;604741;234;69016;-70
2023/10/25 00:38:14;;;;;;;;;;;;;;;20.78;52.64;96297.51;604784;233;68647;-70
2023/10/25 00:40:41;;;;;;;;;;;;;;;20.79;53.70;96296.44;604785;234;62615;-70
2023/10/25 00:43:20;;;;;;;;;;;;;;;20.79;54.25;96292.98;604747;234;68598;-70
2023/10/25 00:45:50;;;;;;;;;;;;;;;20.79;54.06;96298.33;604772;234;68727;-69
2023/10/25 00:48:18;;;;;;;;;;;;;;;20.79;54.92;96301.00;604549;234;62417;-69
2023/10/25 00:50:45;;;;;;;;;;;;;;;20.78;53.41;96297.51;604784;234;68650;-70
2023/10/25 00:53:13;;;;;;;;;;;;;;;20.77;55.69;96301.27;604760;233;69264;-69
2023/10/25 00:55:41;;;;;;;;;;;;;;;20.78;55.19;96304.73;604724;234;64942;-69
2023/10/25 00:58:09;;;;;;;;;;;;;;;20.78;54.72;96294.05;604806;234;68981;-69
2023/10/25 01:00:37;;;;;;;;;;;;;;;20.77;56.25;96295.92;604165;234;68684;-69
2023/10/25 01:03:05;;;;;;;;;;;;;;;20.77;54.64;96295.92;596023;238;64621;-69
2023/10/25 01:05:33;;;;;;;;;;;;;;;20.77;54.93;96301.27;596043;238;68896;-67
2023/10/25 01:08:01;;;;;;;;;;;;;;;20.78;55.84;96294.05;595981;238;68452;-67
2023/10/25 01:10:29;;;;;;;;;;;;;;;20.76;56.65;96291.69;596028;238;65465;-69
2023/10/25 01:12:56;;;;;;;;;;;;;;;20.76;55.08;96288.19;596095;238;66701;-69
2023/10/25 01:15:24;;;;;;;;;;;;;;;20.76;56.87;96283.67;596013;238;68891;-69
2023/10/25 01:17:51;;;;;;;;;;;;;;;20.75;55.51;96287.41;596016;238;62364;-69
2023/10/25 01:20:22;;;;;;;;;;;;;;;20.76;54.38;96286.34;596017;238;68825;-69
2023/10/25 01:22:49;;;;;;;;;;;;;;;20.76;56.22;96285.52;596009;238;68663;-70
2023/10/25 01:25:17;;;;;;;;;;;;;;;20.75;56.11;96270.59;596021;238;65866;-70
2023/10/25 01:27:45;;;;;;;;;;;;;;;20.75;56.44;96263.38;596043;238;69643;-70
2023/10/25 01:30:13;;;;;;;;;;;;;;;20.75;55.01;96254.57;596017;238;66411;-70
2023/10/25 01:32:40;;;;;;;;;;;;;;;20.74;56.31;96237.77;596024;238;64854;-70
2023/10/25 01:35:08;;;;;;;;;;;;;;;20.74;56.18;96251.11;595964;238;66322;-70
2023/10/25 01:37:36;;;;;;;;;;;;;;;20.75;56.36;96249.23;596048;238;66149;-70
2023/10/25 01:40:04;;;;;;;;;;;;;;;20.75;55.97;96262.58;596054;238;64927;-70
2023/10/25 01:42:31;;;;;;;;;;;;;;;20.74;54.38;96271.69;595989;238;68815;-70
2023/10/25 01:45:01;;;;;;;;;;;;;;;20.74;54.03;96285.83;595982;238;67149;-70
2023/10/25 01:47:29;;;;;;;;;;;;;;;20.75;54.14;96276.72;595996;238;64613;-70
2023/10/25 01:49:56;;;;;;;;;;;;;;;20.75;54.84;96278.60;596025;238;68651;-67
2023/10/25 01:52:24;;;;;;;;;;;;;;;20.74;56.42;96275.14;596076;238;68876;-67
2023/10/25 01:54:51;;;;;;;;;;;;;;;20.74;56.44;96275.14;596023;238;62441;-67
2023/10/25 01:57:19;;;;;;;;;;;;;;;20.73;56.20;96270.08;596025;238;68961;-67
2023/10/25 01:59:46;;;;;;;;;;;;;;;20.73;56.38;96270.08;595988;238;68518;-67
2023/10/25 02:02:14;;;;;;;;;;;;;;;20.74;57.49;96277.03;602478;234;62813;-67
2023/10/25 02:04:41;;;;;;;;;;;;;;;20.73;56.18;96281.55;604825;234;65816;-67
2023/10/25 02:07:09;;;;;;;;;;;;;;;20.73;55.61;96286.09;604777;234;68745;-67
2023/10/25 02:09:37;;;;;;;;;;;;;;;20.73;55.87;96289.56;604739;234;64626;-67
2023/10/25 02:12:06;;;;;;;;;;;;;;;20.73;57.00;96302.12;604781;234;69552;-67
2023/10/25 02:14:34;;;;;;;;;;;;;;;20.72;57.77;96284.52;604710;234;69677;-67
2023/10/25 02:17:02;;;;;;;;;;;;;;;20.72;57.73;96303.20;604764;234;62291;-67
2023/10/25 02:19:29;;;;;;;;;;;;;;;20.72;57.47;96311.22;604821;234;66290;-67
2023/10/25 02:21:59;;;;;;;;;;;;;;;20.71;57.30;96317.66;604753;232;68962;-67
2023/10/25 02:24:26;;;;;;;;;;;;;;;20.72;58.04;96305.88;604763;234;62510;-68
2023/10/25 02:26:54;;;;;;;;;;;;;;;20.70;56.08;96311.49;604802;234;69159;-67
2023/10/25 02:29:22;;;;;;;;;;;;;;;20.71;55.55;96301.63;604721;234;66327;-67
2023/10/25 02:31:49;;;;;;;;;;;;;;;20.72;56.46;96295.20;604815;234;64900;-67
2023/10/25 02:34:17;;;;;;;;;;;;;;;20.71;57.54;96285.61;604745;234;68833;-67
2023/10/25 02:36:44;;;;;;;;;;;;;;;20.71;56.25;96297.08;604750;234;66332;-67
2023/10/25 02:39:12;;;;;;;;;;;;;;;20.71;57.56;96285.61;604789;234;64916;-67
2023/10/25 02:41:40;;;;;;;;;;;;;;;20.71;58.63;96282.94;604761;234;68856;-67
2023/10/25 02:44:07;;;;;;;;;;;;;;;20.69;57.19;96285.88;604785;234;68631;-67
2023/10/25 02:46:35;;;;;;;;;;;;;;;20.70;57.13;96294.69;604771;234;62668;-68
2023/10/25 02:49:02;;;;;;;;;;;;;;;20.70;56.51;96305.36;604765;234;68902;-67
2023/10/25 02:51:30;;;;;;;;;;;;;;;20.71;56.93;96317.66;604783;234;68473;-67
2023/10/25 02:53:57;;;;;;;;;;;;;;;20.71;57.94;96312.31;604759;234;65438;-67
2023/10/25 02:56:25;;;;;;;;;;;;;;;20.70;58.70;96302.69;604786;234;69416;-67
2023/10/25 02:58:52;;;;;;;;;;;;;;;20.70;57.40;96302.69;604712;234;68972;-67
2023/10/25 03:01:21;;;;;;;;;;;;;;;20.69;56.73;96299.23;604736;234;62386;-67
2023/10/25 03:03:49;;;;;;;;;;;;;;;20.69;57.96;96293.11;604561;234;68875;-67
2023/10/25 03:06:17;;;;;;;;;;;;;;;20.69;57.93;96288.55;604742;234;66570;-67
2023/10/25 03:08:45;;;;;;;;;;;;;;;20.69;56.60;96293.89;604769;232;64784;-67
2023/10/25 03:11:12;;;;;;;;;;;;;;;20.69;56.37;96293.11;604803;234;68933;-67
2023/10/25 03:13:40;;;;;;;;;;;;;;;20.69;56.59;96293.11;604787;234;68550;-67
2023/10/25 03:16:08;;;;;;;;;;;;;;;20.69;58.06;96293.11;604776;234;64900;-67
2023/10/25 03:18:36;;;;;;;;;;;;;;;20.69;57.54;96295.77;604780;234;68352;-67
2023/10/25 03:21:04;;;;;;;;;;;;;;;20.68;57.83;96280.81;604753;234;66346;-67
2023/10/25 03:23:32;;;;;;;;;;;;;;;20.68;57.77;96286.16;604756;234;65679;-67
2023/10/25 03:26:05;;;;;;;;;;;;;;;20.67;58.01;96292.59;604768;234;69156;-67
2023/10/25 03:28:33;;;;;;;;;;;;;;;20.67;58.27;96290.70;604578;233;66457;-67
2023/10/25 03:31:07;;;;;;;;;;;;;;;20.67;58.53;96279.23;604737;234;62634;-68
2023/10/25 03:33:34;;;;;;;;;;;;;;;20.67;58.22;96273.90;604751;234;68707;-70
2023/10/25 03:36:02;;;;;;;;;;;;;;;20.67;57.68;96263.22;604788;234;66604;-70
2023/10/25 03:38:30;;;;;;;;;;;;;;;20.66;56.59;96266.98;604757;234;62378;-71
2023/10/25 03:41:00;;;;;;;;;;;;;;;20.66;56.20;96257.09;604788;234;66278;-70
2023/10/25 03:43:28;;;;;;;;;;;;;;;20.67;58.95;96252.55;604761;234;68860;-68
2023/10/25 03:45:55;;;;;;;;;;;;;;;20.66;58.07;96249.08;604738;234;64598;-67
2023/10/25 03:48:23;;;;;;;;;;;;;;;20.66;57.94;96256.30;604736;234;68606;-70
2023/10/25 03:50:50;;;;;;;;;;;;;;;20.66;58.76;96250.97;604809;234;68354;-70
2023/10/25 03:53:18;;;;;;;;;;;;;;;20.65;58.37;96255.48;604749;234;65245;-70
2023/10/25 03:55:58;;;;;;;;;;;;;;;20.65;58.54;96254.70;604768;234;68654;-68
2023/10/25 03:58:25;;;;;;;;;;;;;;;20.65;58.66;96236.01;604750;234;68582;-68
2023/10/25 04:01:03;;;;;;;;;;;;;;;20.65;57.03;96233.34;604686;234;64739;-68
2023/10/25 04:03:31;;;;;;;;;;;;;;;20.64;58.46;96227.21;604781;234;66661;-66
2023/10/25 04:05:58;;;;;;;;;;;;;;;20.65;57.12;96238.67;604777;234;66087;-66
2023/10/25 04:08:26;;;;;;;;;;;;;;;20.65;58.74;96234.13;604774;234;62541;-66
2023/10/25 04:10:54;;;;;;;;;;;;;;;20.64;58.61;96243.23;604781;234;68213;-66
2023/10/25 04:13:21;;;;;;;;;;;;;;;20.64;58.50;96232.55;604728;234;68887;-66
2023/10/25 04:16:06;;;;;;;;;;;;;;;20.63;57.26;96238.98;604789;234;64754;-66
2023/10/25 04:18:33;;;;;;;;;;;;;;;20.64;58.92;96221.08;604790;234;68519;-67
2023/10/25 04:21:01;;;;;;;;;;;;;;;20.64;58.51;96207.73;604783;234;68484;-67
2023/10/25 04:23:30;;;;;;;;;;;;;;;20.63;55.67;96214.95;604760;234;62767;-67
2023/10/25 04:26:07;;;;;;;;;;;;;;;20.63;58.02;96209.62;604749;234;66146;-67
2023/10/25 04:28:34;;;;;;;;;;;;;;;20.63;57.17;96217.62;604747;234;68499;-66
2023/10/25 04:31:02;;;;;;;;;;;;;;;20.64;56.47;96224.54;604753;232;64668;-66
2023/10/25 04:33:30;;;;;;;;;;;;;;;20.65;58.28;96212.77;604780;234;68354;-66
2023/10/25 04:35:57;;;;;;;;;;;;;;;20.64;58.88;96205.06;604756;234;69426;-66
2023/10/25 04:38:25;;;;;;;;;;;;;;;20.62;58.33;96213.34;604714;234;64700;-66
2023/10/25 04:40:53;;;;;;;;;;;;;;;20.64;57.63;96218.41;604725;234;69004;-66
2023/10/25 04:43:21;;;;;;;;;;;;;;;20.63;58.03;96208.83;604766;234;68418;-66
2023/10/25 04:45:48;;;;;;;;;;;;;;;20.61;57.82;96215.23;604832;234;62727;-66
2023/10/25 04:48:16;;;;;;;;;;;;;;;20.62;58.90;96205.34;604750;234;68648;-66
2023/10/25 04:50:44;;;;;;;;;;;;;;;20.60;58.63;96197.64;604789;234;66342;-66
2023/10/25 04:53:11;;;;;;;;;;;;;;;20.61;58.69;96199.21;604754;234;62786;-66
2023/10/25 04:55:40;;;;;;;;;;;;;;;20.62;58.61;96197.33;604792;234;66717;-66
2023/10/25 04:58:09;;;;;;;;;;;;;;;20.60;57.74;96202.97;604708;232;68574;-66
2023/10/25 05:00:36;;;;;;;;;;;;;;;20.62;57.73;96205.34;604152;234;62488;-66
2023/10/25 05:03:08;;;;;;;;;;;;;;;20.61;58.00;96212.56;596016;238;66521;-66
2023/10/25 05:05:33;;;;;;;;;;;;;;;20.61;56.32;96209.89;595881;235;66616;-67
2023/10/25 05:08:01;;;;;;;;;;;;;;;20.63;58.43;96211.50;596026;238;62427;-67
2023/10/25 05:10:29;;;;;;;;;;;;;;;20.63;58.61;96203.48;596077;238;68945;-67
2023/10/25 05:12:56;;;;;;;;;;;;;;;20.62;57.80;96208.01;596023;238;68578;-67
2023/10/25 05:15:27;;;;;;;;;;;;;;;20.61;57.90;96217.90;596036;238;62207;-67
2023/10/25 05:17:54;;;;;;;;;;;;;;;20.62;57.39;96226.70;595964;237;73202;-66
2023/10/25 05:20:21;;;;;;;;;;;;;;;20.61;58.79;96231.25;596014;238;68451;-66
2023/10/25 05:22:50;;;;;;;;;;;;;;;20.63;58.36;96230.19;596051;238;64775;-66
2023/10/25 05:25:18;;;;;;;;;;;;;;;20.62;58.24;96224.03;596079;238;68686;-66
2023/10/25 05:27:46;;;;;;;;;;;;;;;20.63;59.10;96232.85;595985;235;69145;-66
2023/10/25 05:30:15;;;;;;;;;;;;;;;20.62;57.02;96226.70;595998;238;65541;-66
2023/10/25 05:32:49;;;;;;;;;;;;;;;20.62;57.63;96234.70;596004;238;68826;-66
2023/10/25 05:35:14;;;;;;;;;;;;;;;20.60;59.21;96220.87;595917;237;66660;-66
2023/10/25 05:37:42;;;;;;;;;;;;;;;20.60;59.22;96229.67;596059;238;64784;-66
2023/10/25 05:40:10;;;;;;;;;;;;;;;20.60;58.78;96224.33;596033;238;68898;-69
2023/10/25 05:42:42;;;;;;;;;;;;;;;20.60;58.31;96223.55;596025;238;68691;-69
2023/10/25 05:45:10;;;;;;;;;;;;;;;20.60;58.63;96210.20;595948;235;62465;-69
2023/10/25 05:47:38;;;;;;;;;;;;;;;20.59;58.85;96208.59;596024;238;66340;-69
2023/10/25 05:50:06;;;;;;;;;;;;;;;20.59;58.42;96205.92;596064;238;66430;-69
2023/10/25 05:52:34;;;;;;;;;;;;;;;20.59;57.90;96208.59;595981;238;64809;-69
2023/10/25 05:55:02;;;;;;;;;;;;;;;20.59;57.00;96214.72;596031;238;69033;-69
2023/10/25 05:57:29;;;;;;;;;;;;;;;20.60;57.80;96218.99;596000;238;68693;-69
2023/10/25 05:59:57;;;;;;;;;;;;;;;20.62;57.93;96216.02;595947;235;64561;-68
2023/10/25 06:02:26;;;;;;;;;;;;;;;20.62;59.01;96221.36;603073;234;68718;-69
2023/10/25 06:04:55;;;;;;;;;;;;;;;20.60;59.28;96229.67;604810;234;66443;-68
2023/10/25 06:07:23;;;;;;;;;;;;;;;20.61;59.51;96225.91;604723;234;64626;-67
2023/10/25 06:09:51;;;;;;;;;;;;;;;20.65;52.72;96236.01;604104;232;68695;-68
2023/10/25 06:12:21;;;;;;;;;;;;;;;20.65;51.42;96244.80;604545;234;68640;-68
2023/10/25 06:14:48;;;;;;;;;;;;;;;20.69;52.05;96229.81;604054;234;64805;-68
2023/10/25 06:17:15;;;;;;;;;;;;;;;20.72;54.18;96236.46;608353;232;68852;-72
2023/10/25 06:19:43;;;;;;;;;;;;;;;20.72;54.75;96245.26;607139;232;68625;-69
2023/10/25 06:22:10;;;;;;;;;;;;;;;20.71;57.11;96250.91;608619;232;65418;-67
2023/10/25 06:24:38;;;;;;;;;;;;;;;20.68;54.71;96248.78;609995;232;68721;-67
2023/10/25 06:27:05;;;;;;;;;;;;;;;20.69;58.35;96245.05;610074;232;66532;-68
2023/10/25 06:29:33;;;;;;;;;;;;;;;20.70;59.69;96251.97;610493;232;65055;-67
2023/10/25 06:32:00;;;;;;;;;;;;;;;20.69;59.74;96242.38;610542;232;68761;-68
2023/10/25 06:34:28;;;;;;;;;;;;;;;20.68;60.37;96259.45;610484;232;66186;-68
2023/10/25 06:36:55;;;;;;;;;;;;;;;20.68;60.34;96238.10;610610;232;62457;-67
2023/10/25 06:39:23;;;;;;;;;;;;;;;20.67;60.71;96215.16;610547;232;66411;-67
2023/10/25 06:41:51;;;;;;;;;;;;;;;20.69;59.91;96215.67;610524;232;68866;-68
2023/10/25 06:44:19;;;;;;;;;;;;;;;20.69;59.83;96234.37;610549;232;64695;-69
2023/10/25 06:46:46;;;;;;;;;;;;;;;20.70;60.38;96241.28;610309;232;68758;-69
2023/10/25 06:49:14;;;;;;;;;;;;;;;20.69;60.13;96245.84;610027;232;69331;-69
2023/10/25 06:51:43;;;;;;;;;;;;;;;20.70;59.95;96252.75;610178;232;64807;-69
2023/10/25 06:54:11;;;;;;;;;;;;;;;20.71;60.22;96250.91;610235;232;66714;-68
2023/10/25 06:56:39;;;;;;;;;;;;;;;20.70;59.91;96262.64;610208;232;68862;-66
2023/10/25 06:59:07;;;;;;;;;;;;;;;20.71;59.63;96230.33;610566;232;64627;-67
2023/10/25 07:01:36;;;;;;;;;;;;;;;20.72;59.95;96231.12;609315;232;68640;-67
2023/10/25 07:04:04;;;;;;;;;;;;;;;20.72;59.42;96223.11;607902;233;68591;-66
2023/10/25 07:06:32;;;;;;;;;;;;;;;20.72;59.56;96229.23;607887;233;64738;-66
2023/10/25 07:09:00;;;;;;;;;;;;;;;20.72;59.28;96209.76;607950;233;68857;-67
2023/10/25 07:11:27;;;;;;;;;;;;;;;20.72;60.60;96202.54;607987;233;68574;-67
2023/10/25 07:13:55;;;;;;;;;;;;;;;20.72;60.08;96215.10;607928;233;64327;-68
2023/10/25 07:16:22;;;;;;;;;;;;;;;20.72;60.67;96196.41;607985;233;68764;-70
2023/10/25 07:18:50;;;;;;;;;;;;;;;20.73;60.81;96200.66;607997;233;68681;-67
2023/10/25 07:21:17;;;;;;;;;;;;;;;20.72;60.98;96212.43;607931;233;62402;-68
2023/10/25 07:23:45;;;;;;;;;;;;;;;20.72;61.03;96202.54;608016;233;66406;-66
2023/10/25 07:26:12;;;;;;;;;;;;;;;20.72;60.82;96196.41;599302;233;66451;-66
2023/10/25 07:28:40;;;;;;;;;;;;;;;20.72;60.48;96189.19;592693;233;62494;-65
2023/10/25 07:31:07;;;;;;;;;;;;;;;20.72;60.42;96197.20;596330;233;66397;-66
2023/10/25 07:33:35;;;;;;;;;;;;;;;20.73;60.72;96181.97;594510;233;68867;-65
2023/10/25 07:36:03;;;;;;;;;;;;;;;20.73;60.41;96187.30;592215;238;64482;-63
2023/10/25 07:38:30;;;;;;;;;;;;;;;20.73;60.23;96192.64;599982;233;68794;-63
2023/10/25 07:40:58;;;;;;;;;;;;;;;20.73;60.22;96188.09;594584;233;68671;-64
2023/10/25 07:43:25;;;;;;;;;;;;;;;20.74;60.80;96172.89;594103;233;64838;-64
2023/10/25 07:45:53;;;;;;;;;;;;;;;20.74;59.63;96178.23;593384;233;68817;-64
2023/10/25 07:48:21;;;;;;;;;;;;;;;20.74;59.23;96172.89;595629;233;66094;-64
2023/10/25 07:50:48;;;;;;;;;;;;;;;20.75;56.76;96193.16;592029;237;65618;-67
2023/10/25 07:53:16;;;;;;;;;;;;;;;20.76;55.20;96192.06;588911;241;69644;-67
2023/10/25 07:55:45;;;;;;;;;;;;;;;20.78;54.32;96187.23;588817;241;68950;-67
2023/10/25 07:58:13;;;;;;;;;;;;;;;20.78;55.56;96196.03;591053;232;62448;-66
2023/10/25 08:00:40;;;;;;;;;;;;;;;20.79;54.64;96194.97;596762;233;68706;-66
2023/10/25 08:03:08;;;;;;;;;;;;;;;20.79;55.51;96197.64;605123;233;68645;-66
2023/10/25 08:05:36;;;;;;;;;;;;;;;20.80;58.10;96195.77;605208;229;64762;-66
2023/10/25 08:08:03;;;;;;;;;;;;;;;20.78;58.28;96196.03;604968;232;68750;-66
2023/10/25 08:10:31;;;;;;;;;;;;;;;20.79;56.27;96199.52;605274;232;68327;-66
2023/10/25 08:12:58;;;;;;;;;;;;;;;20.80;55.19;96204.56;605725;232;62448;-66
2023/10/25 08:15:26;;;;;;;;;;;;;;;20.80;54.59;96209.90;606125;233;68489;-65
2023/10/25 08:17:54;;;;;;;;;;;;;;;20.81;54.36;96208.02;607952;233;68427;-66
2023/10/25 08:20:21;;;;;;;;;;;;;;;20.80;57.69;96209.90;608050;233;64751;-66
2023/10/25 08:22:49;;;;;;;;;;;;;;;20.79;57.61;96213.66;608113;233;68619;-66
2023/10/25 08:25:16;;;;;;;;;;;;;;;20.79;58.55;96212.87;607991;233;69457;-66
2023/10/25 08:27:44;;;;;;;;;;;;;;;20.78;58.77;96205.93;608035;233;64571;-67
2023/10/25 08:30:11;;;;;;;;;;;;;;;20.76;58.67;96203.56;608063;233;68272;-67
2023/10/25 08:32:39;;;;;;;;;;;;;;;20.76;59.50;96213.42;607941;233;68318;-67
2023/10/25 08:35:06;;;;;;;;;;;;;;;20.75;59.26;96217.19;608031;233;64582;-68
2023/10/25 08:37:34;;;;;;;;;;;;;;;20.75;59.31;96215.30;608058;233;68608;-67
2023/10/25 08:40:01;;;;;;;;;;;;;;;20.74;58.01;96216.41;607869;233;68405;-66
2023/10/25 08:42:29;;;;;;;;;;;;;;;20.75;59.43;96212.64;608024;233;62421;-67
2023/10/25 08:44:56;;;;;;;;;;;;;;;20.74;59.23;96203.05;608012;233;66402;-67
2023/10/25 08:47:24;;;;;;;;;;;;;;;20.74;57.51;96208.39;607979;233;66435;-67
2023/10/25 08:49:51;;;;;;;;;;;;;;;20.76;59.16;96200.08;607584;233;62492;-66
2023/10/25 08:52:20;;;;;;;;;;;;;;;20.75;59.17;96203.84;602356;233;68942;-64
2023/10/25 08:54:48;;;;;;;;;;;;;;;20.75;59.78;96209.18;601126;236;68545;-64
2023/10/25 08:57:17;;;;;;;;;;;;;;;20.75;58.06;96228.66;601332;236;64605;-67
2023/10/25 08:59:46;;;;;;;;;;;;;;;20.75;57.16;96211.85;601240;233;66450;-66
2023/10/25 09:02:14;;;;;;;;;;;;;;;20.76;55.63;96218.77;608622;233;68455;-66
2023/10/25 09:05:03;;;;;;;;;;;;;;;20.76;55.18;96219.58;609361;233;64631;-67
2023/10/25 09:07:29;;;;;;;;;;;;;;;20.77;59.41;96223.05;608993;233;68998;-66
2023/10/25 09:09:57;;;;;;;;;;;;;;;20.75;60.38;96217.19;609169;233;67013;-66
2023/10/25 09:12:25;;;;;;;;;;;;;;;20.75;60.08;96235.87;609355;233;64742;-67
2023/10/25 09:14:53;;;;;;;;;;;;;;;20.76;60.64;96229.45;609261;233;68700;-65
2023/10/25 09:17:20;;;;;;;;;;;;;;;20.75;59.41;96214.52;609428;233;66466;-68
2023/10/25 09:19:48;;;;;;;;;;;;;;;20.75;54.03;96209.97;609308;233;62516;-67
2023/10/25 09:22:25;;;;;;;;;;;;;;;20.77;56.18;96215.82;609196;233;66548;-67
2023/10/25 09:24:56;;;;;;;;;;;;;;;20.78;60.16;96216.61;609195;233;66483;-66
2023/10/25 09:27:24;;;;;;;;;;;;;;;20.76;60.46;96222.26;609396;233;64693;-68
2023/10/25 09:29:51;;;;;;;;;;;;;;;20.77;59.17;96217.70;609344;232;68023;-65
2023/10/25 09:32:20;;;;;;;;;;;;;;;20.77;56.40;96215.03;609326;233;66447;-67
2023/10/25 09:34:48;;;;;;;;;;;;;;;20.79;59.14;96202.20;609333;233;62421;-67
2023/10/25 09:37:15;;;;;;;;;;;;;;;20.77;59.44;96199.02;609333;233;66608;-68
2023/10/25 09:39:43;;;;;;;;;;;;;;;20.77;59.19;96210.48;609369;233;66678;-67
2023/10/25 09:42:12;;;;;;;;;;;;;;;20.76;59.84;96205.42;609328;233;62567;-68
2023/10/25 09:44:54;;;;;;;;;;;;;;;20.77;57.77;96193.67;609247;233;66645;-68
2023/10/25 09:47:15;;;;;;;;;;;;;;;20.77;59.91;96189.13;608329;233;69549;-68
2023/10/25 09:49:44;;;;;;;;;;;;;;;20.75;60.62;96191.28;609294;233;62429;-68
2023/10/25 09:52:21;;;;;;;;;;;;;;;20.76;61.05;96197.41;609369;233;68885;-67
2023/10/25 09:54:52;;;;;;;;;;;;;;;20.76;60.33;96187.55;609330;233;66778;-68
2023/10/25 09:57:22;;;;;;;;;;;;;;;20.77;60.90;96188.33;609324;233;64557;-68
2023/10/25 09:59:53;;;;;;;;;;;;;;;20.75;60.48;96185.94;609204;233;66587;-68
2023/10/25 10:02:21;;;;;;;;;;;;;;;20.75;60.43;96179.81;609234;233;63287;-65
2023/10/25 10:04:49;;;;;;;;;;;;;;;20.76;60.92;96184.05;609044;233;62765;-68
2023/10/25 10:07:35;;;;;;;;;;;;;;;20.77;52.31;96181.11;609202;233;69137;-67
2023/10/25 10:10:04;;;;;;;;;;;;;;;20.81;52.68;96167.96;609291;233;68723;-67
2023/10/25 10:12:32;;;;;;;;;;;;;;;20.88;51.92;96157.72;607565;233;62466;-67
2023/10/25 10:15:00;;;;;;;;;;;;;;;20.89;52.18;96158.51;609363;233;68680;-67
2023/10/25 10:17:28;;;;;;;;;;;;;;;20.89;52.31;96159.30;609390;233;68406;-67
2023/10/25 10:19:57;;;;;;;;;;;;;;;20.90;52.13;96160.90;609311;233;63476;-67
2023/10/25 10:22:26;;;;;;;;;;;;;;;20.91;52.04;96145.66;609268;233;68611;-68
2023/10/25 10:24:56;;;;;;;;;;;;;;;20.91;51.98;96149.12;609335;233;66816;-67
2023/10/25 10:27:27;;;;;;;;;;;;;;;20.91;52.07;96159.02;609407;233;62478;-67
2023/10/25 10:29:55;;;;;;;;;;;;;;;20.93;52.00;96138.16;609335;233;69748;-67
2023/10/25 10:32:24;;;;;;;;;;;;;;;20.92;52.11;96139.23;609306;233;66626;-67
2023/10/25 10:34:56;;;;;;;;;;;;;;;20.92;52.20;96142.69;609165;233;62434;-66
2023/10/25 10:37:24;;;;;;;;;;;;;;;20.92;52.26;96142.69;609294;233;66750;-67
2023/10/25 10:40:00;;;;;;;;;;;;;;;20.93;52.33;96130.15;609307;233;66601;-67
2023/10/25 10:42:32;;;;;;;;;;;;;;;20.93;52.42;96125.59;609314;233;62512;-67
2023/10/25 10:45:00;;;;;;;;;;;;;;;20.93;52.53;96122.14;609307;233;68525;-65
2023/10/25 10:47:41;;;;;;;;;;;;;;;20.93;52.59;96114.13;609301;233;69475;-67
2023/10/25 10:50:10;;;;;;;;;;;;;;;20.93;52.60;96106.11;609332;233;64695;-67
2023/10/25 10:52:40;;;;;;;;;;;;;;;20.93;52.70;96114.91;609327;233;69038;-67
2023/10/25 10:55:08;;;;;;;;;;;;;;;20.94;52.80;96110.36;608967;233;68586;-67
2023/10/25 10:57:39;;;;;;;;;;;;;;;20.94;52.92;96110.36;609302;233;64793;-66
2023/10/25 11:00:13;;;;;;;;;;;;;;;20.94;52.84;96116.48;609344;233;68958;-68
2023/10/25 11:02:37;;;;;;;;;;;;;;;20.95;52.88;96115.42;607532;233;68702;-68
2023/10/25 11:05:05;;;;;;;;;;;;;;;20.94;52.89;96105.02;607977;233;64762;-68
2023/10/25 11:07:33;;;;;;;;;;;;;;;20.93;52.97;96095.43;607928;233;66672;-68
2023/10/25 11:10:01;;;;;;;;;;;;;;;20.95;53.01;96099.39;607915;233;66619;-68
2023/10/25 11:12:28;;;;;;;;;;;;;;;20.96;53.00;96092.17;607892;233;63349;-68
2023/10/25 11:14:57;;;;;;;;;;;;;;;20.95;53.06;96094.05;607920;233;66372;-68
2023/10/25 11:17:25;;;;;;;;;;;;;;;20.96;53.10;96094.84;607744;233;66463;-68
2023/10/25 11:19:52;;;;;;;;;;;;;;;20.96;53.11;96092.17;607966;233;62366;-68
2023/10/25 11:22:20;;;;;;;;;;;;;;;20.96;53.16;96100.18;607848;233;68959;-65
2023/10/25 11:24:48;;;;;;;;;;;;;;;20.96;53.19;96092.17;607819;233;68621;-66
2023/10/25 11:27:16;;;;;;;;;;;;;;;20.97;51.50;96088.41;607921;233;63367;-67
2023/10/25 11:29:44;;;;;;;;;;;;;;;20.97;53.27;96089.19;607928;233;68582;-66
2023/10/25 11:32:15;;;;;;;;;;;;;;;20.98;51.43;96079.30;607986;233;68337;-65
2023/10/25 11:34:43;;;;;;;;;;;;;;;20.99;53.52;96078.23;607096;233;64708;-66
2023/10/25 11:37:12;;;;;;;;;;;;;;;20.97;54.10;96075.05;607424;232;68711;-67
2023/10/25 11:39:58;;;;;;;;;;;;;;;20.96;55.72;96074.26;607560;233;68857;-66
2023/10/25 11:42:27;;;;;;;;;;;;;;;20.96;57.83;96081.48;607525;233;64794;-65
2023/10/25 11:44:55;;;;;;;;;;;;;;;20.92;59.76;96073.25;607468;233;66112;-66
2023/10/25 11:47:23;;;;;;;;;;;;;;;20.92;59.21;96072.45;607534;233;66697;-66
2023/10/25 11:49:53;;;;;;;;;;;;;;;20.90;56.48;96063.94;607908;233;62497;-66
2023/10/25 11:52:21;;;;;;;;;;;;;;;20.91;54.43;96058.31;607849;233;66574;-66
2023/10/25 11:54:55;;;;;;;;;;;;;;;20.92;55.44;96061.78;607951;233;69924;-66
2023/10/25 11:57:19;;;;;;;;;;;;;;;20.92;55.40;96067.12;607551;233;64740;-66
2023/10/25 11:59:46;;;;;;;;;;;;;;;20.92;56.28;96053.77;607940;233;66084;-67
2023/10/25 12:02:14;;;;;;;;;;;;;;;20.92;56.60;96051.09;608961;233;66351;-66
2023/10/25 12:04:41;;;;;;;;;;;;;;;20.91;55.49;96034.28;609339;233;65483;-66
2023/10/25 12:07:09;;;;;;;;;;;;;;;20.92;55.48;96035.06;609371;233;68778;-66
2023/10/25 12:09:38;;;;;;;;;;;;;;;20.91;55.17;96039.63;609373;233;68610;-66
2023/10/25 12:12:06;;;;;;;;;;;;;;;20.91;55.07;96038.84;609347;233;62349;-67
2023/10/25 12:14:33;;;;;;;;;;;;;;;20.91;55.57;96034.28;609336;233;68817;-67
2023/10/25 12:17:01;;;;;;;;;;;;;;;20.92;54.41;96040.41;609443;233;66508;-67
2023/10/25 12:19:29;;;;;;;;;;;;;;;20.91;54.29;96028.94;609379;233;64883;-66
2023/10/25 12:21:57;;;;;;;;;;;;;;;20.92;54.62;96056.44;609424;233;68157;-66
2023/10/25 12:24:26;;;;;;;;;;;;;;;20.94;54.34;96048.92;609381;233;66238;-67
2023/10/25 12:26:54;;;;;;;;;;;;;;;20.93;56.14;96040.13;609353;233;64638;-66
2023/10/25 12:29:21;;;;;;;;;;;;;;;20.92;57.10;96037.73;609325;233;69133;-66
2023/10/25 12:31:49;;;;;;;;;;;;;;;20.91;58.91;96033.49;609371;233;68321;-66
2023/10/25 12:34:16;;;;;;;;;;;;;;;20.90;57.41;96051.41;609355;233;64473;-66
2023/10/25 12:36:44;;;;;;;;;;;;;;;20.89;56.51;96030.31;609341;233;68313;-66
2023/10/25 12:39:11;;;;;;;;;;;;;;;20.90;56.41;96040.72;609447;233;66039;-66
2023/10/25 12:41:39;;;;;;;;;;;;;;;20.90;55.57;96048.73;609313;233;62402;-66
2023/10/25 12:44:08;;;;;;;;;;;;;;;20.90;53.09;96056.74;609369;233;68349;-67
2023/10/25 12:46:36;;;;;;;;;;;;;;;20.92;52.15;96061.78;609360;233;66216;-67
2023/10/25 12:49:03;;;;;;;;;;;;;;;20.93;52.02;96060.70;609280;233;62749;-67
2023/10/25 12:51:31;;;;;;;;;;;;;;;20.94;51.87;96060.40;609420;233;68384;-67
2023/10/25 12:53:59;;;;;;;;;;;;;;;20.93;51.79;96048.14;609337;233;68888;-67